createdAt,value
2023-04-01T13:03:54.158Z,61.4937
2023-04-01T13:04:55.780Z,64.3381
2023-04-01T13:05:57.148Z,65.0574
2023-04-01T13:06:58.679Z,64.3282
2023-04-01T13:15:21.828Z,54.5180
2023-04-01T13:16:23.394Z,57.0755
2023-04-01T13:17:24.926Z,57.6816
2023-04-01T13:18:26.435Z,57.6350
2023-04-01T13:19:27.902Z,57.4061
2023-04-01T13:20:29.445Z,57.1033
2023-04-01T13:21:30.990Z,56.7992
2023-04-01T13:22:32.512Z,56.4979
2023-04-01T13:23:33.983Z,56.2712
2023-04-01T13:24:35.780Z,56.0418
2023-04-01T13:25:37.054Z,55.9152
2023-04-01T13:26:38.568Z,55.8918
2023-04-01T13:27:40.130Z,55.7878
2023-04-01T13:28:41.631Z,55.5928
2023-04-01T13:29:43.206Z,55.4168
2023-04-01T13:30:44.691Z,55.3305
2023-04-01T13:31:46.225Z,55.2421
2023-04-01T13:32:47.839Z,55.2362
2023-04-01T13:33:49.214Z,55.2542
2023-04-01T13:34:50.838Z,55.1815
2023-04-01T13:35:52.315Z,55.0046
2023-04-01T13:36:53.827Z,54.8980
2023-04-01T13:37:55.353Z,54.8173
2023-04-01T13:38:56.857Z,54.7105
2023-04-01T13:39:58.374Z,54.6867
2023-04-01T13:41:03.498Z,54.5938
2023-04-01T16:09:08.464Z,48.2765
2023-04-01T16:10:09.962Z,51.6931
2023-04-01T16:11:11.504Z,53.0756
2023-04-01T16:12:13.039Z,53.6166
2023-04-01T16:13:14.552Z,53.7839
2023-04-01T16:14:16.085Z,53.7713
2023-04-01T16:15:17.619Z,53.7452
2023-04-01T16:16:19.239Z,53.8055
2023-04-01T16:17:20.732Z,53.8349
2023-04-01T16:18:22.202Z,53.8005
2023-04-01T16:19:23.857Z,53.8066
2023-04-01T16:20:25.260Z,53.8685
2023-04-01T16:21:26.780Z,53.9027
2023-04-01T16:22:28.322Z,53.8640
2023-04-01T16:23:29.841Z,53.9541
2023-04-01T16:24:31.383Z,53.9463
2023-04-01T16:25:33.056Z,53.9631
2023-04-01T16:26:34.451Z,53.8741
2023-04-01T16:27:36.058Z,53.8271
2023-04-01T16:28:37.622Z,53.9313
2023-04-01T16:29:39.130Z,53.9816
2023-04-01T16:30:40.657Z,54.0200
2023-04-01T16:31:42.103Z,53.9255
2023-04-01T16:32:43.868Z,53.9237
2023-04-01T16:33:45.140Z,53.9725
2023-04-01T16:34:46.682Z,54.0383
2023-04-01T16:35:48.337Z,53.9210
2023-04-01T16:36:49.925Z,53.8771
2023-04-01T16:37:51.287Z,53.8339
2023-04-01T16:38:53.013Z,53.8260
2023-04-01T16:39:54.321Z,53.8528
2023-04-01T16:40:55.858Z,53.8577
2023-04-01T16:41:57.390Z,53.7665
2023-04-01T16:42:58.911Z,53.7628
2023-04-01T16:44:00.434Z,53.7609
2023-04-01T16:45:01.970Z,53.7773
2023-04-01T16:46:03.537Z,53.7986
2023-04-01T16:47:05.073Z,53.7871
2023-04-01T16:48:06.686Z,53.7679
2023-04-01T16:49:08.162Z,53.8418
2023-04-01T16:50:09.596Z,53.9161
2023-04-01T16:51:11.183Z,53.9624
2023-04-01T16:52:12.859Z,53.9972
2023-04-01T16:53:14.361Z,53.9243
2023-04-01T16:54:15.708Z,53.8530
2023-04-01T16:55:17.254Z,53.8571
2023-04-01T16:56:18.784Z,53.7863
2023-04-01T16:57:20.385Z,53.7606
2023-04-01T16:58:21.906Z,53.7661
2023-04-01T16:59:23.596Z,53.7038
2023-04-01T17:00:25.703Z,53.6273
2023-04-01T17:01:28.760Z,53.4893
2023-04-01T17:02:28.017Z,53.4552
2023-04-01T17:03:29.474Z,53.4330
2023-04-01T17:04:31.061Z,53.4579
2023-04-01T17:05:32.534Z,53.5364
2023-04-01T17:06:34.053Z,53.6701
2023-04-01T17:07:35.608Z,53.8464
2023-04-01T17:08:37.152Z,54.0985
2023-04-01T17:09:38.649Z,54.2980
2023-04-01T17:10:40.176Z,54.3498
2023-04-01T17:11:41.795Z,54.5249
2023-04-01T17:12:43.407Z,54.7819
2023-04-01T17:13:44.884Z,55.0045
2023-04-01T17:14:46.670Z,54.9424
2023-04-01T17:15:48.063Z,55.0259
2023-04-01T17:16:49.342Z,54.9812
2023-04-01T17:17:50.956Z,54.9053
2023-04-01T17:18:52.386Z,54.8464
2023-04-01T17:19:53.930Z,54.6994
2023-04-01T17:20:55.492Z,54.5451
2023-04-01T17:21:57.002Z,54.5593
2023-04-01T17:22:58.608Z,54.6789
2023-04-01T17:24:00.063Z,54.8440
2023-04-01T17:25:01.564Z,54.8505
2023-04-01T17:26:03.119Z,54.8372
2023-04-01T17:27:04.657Z,54.7783
2023-04-01T17:28:06.158Z,54.7055
2023-04-01T17:29:07.728Z,54.6929
2023-04-01T17:30:09.207Z,54.7822
2023-04-01T17:31:10.853Z,54.7315
2023-04-01T17:32:12.262Z,54.6854
2023-04-01T17:33:13.826Z,54.6870
2023-04-01T17:34:15.344Z,54.6188
2023-04-01T17:35:16.896Z,54.6132
2023-04-01T17:36:18.381Z,54.5997
2023-04-01T17:37:19.981Z,54.6663
2023-04-01T17:38:21.463Z,54.7776
2023-04-01T17:39:22.954Z,54.7391
2023-04-01T17:40:24.658Z,54.7032
2023-04-01T17:41:26.033Z,54.6967
2023-04-01T17:42:27.533Z,54.6619
2023-04-01T17:43:29.084Z,54.6643
2023-04-01T17:44:30.690Z,54.6617
2023-04-01T17:45:32.231Z,54.6961
2023-04-01T17:46:33.733Z,54.6907
2023-04-01T17:47:35.204Z,54.7760
2023-04-01T17:48:36.784Z,54.7393
2023-04-01T17:49:38.278Z,54.7491
2023-04-01T17:50:39.791Z,54.7397
2023-04-01T17:51:41.462Z,54.7702
2023-04-01T17:52:42.803Z,54.7694
2023-04-01T17:53:44.349Z,54.7748
2023-04-01T17:54:45.873Z,54.7785
2023-04-01T17:55:47.430Z,54.7773
2023-04-01T17:56:48.998Z,54.7825
2023-04-01T17:57:50.450Z,54.8007
2023-04-01T17:58:52.018Z,54.8165
2023-04-01T17:59:53.548Z,54.8224
2023-04-01T18:00:55.028Z,54.8343
2023-04-01T18:01:56.593Z,55.2896
2023-04-01T18:02:58.131Z,55.7127
2023-04-01T18:04:00.150Z,55.6718
2023-04-01T18:05:01.166Z,55.6130
2023-04-01T18:06:02.723Z,55.5669
2023-04-01T18:07:04.204Z,55.4655
2023-04-01T18:08:05.703Z,55.3497
2023-04-01T18:09:07.254Z,55.2656
2023-04-01T18:10:08.825Z,55.2162
2023-04-01T18:11:10.305Z,55.1166
2023-04-01T18:12:11.804Z,55.0652
2023-04-01T18:13:13.341Z,54.9546
2023-04-01T18:14:14.943Z,54.9281
2023-04-01T18:15:16.421Z,54.9772
2023-04-01T18:16:18.134Z,54.9539
2023-04-01T18:17:19.515Z,54.9664
2023-04-01T18:18:20.984Z,54.9767
2023-04-01T18:19:22.527Z,54.9244
2023-04-01T18:20:24.028Z,54.9224
2023-04-01T18:21:25.582Z,54.9842
2023-04-01T18:22:27.092Z,54.9808
2023-04-01T18:23:28.776Z,55.0414
2023-04-01T18:24:30.162Z,55.0793
2023-04-01T18:25:31.664Z,55.0329
2023-04-01T18:26:33.237Z,54.9710
2023-04-01T18:27:34.765Z,54.9637
2023-04-01T18:28:36.235Z,54.9516
2023-04-01T18:29:37.856Z,54.9137
2023-04-01T18:30:39.321Z,54.8781
2023-04-01T18:31:40.899Z,54.8249
2023-04-01T18:32:42.497Z,54.8279
2023-04-01T18:33:43.958Z,54.7542
2023-04-01T18:34:45.440Z,54.7630
2023-04-01T18:35:47.051Z,54.7566
2023-04-01T18:36:49.437Z,54.7618
